Time;durP1;ratioP1;P1;durP2;ratioP2;P2;SDS_P1;SDS_P2;PMS_P1;PMS_P2;Temp;Humidity;BMP_temperature;BMP_pressure;BME280_temperature;BME280_humidity;BME280_pressure;Samples;Min_cycle;Max_cycle;Signal;HPM_P1;HPM_P2
2022/08/25 00:01:47;;;;;;;;;;;23.20;83.50;;;;;;5061499;28;19917;-80
2022/08/25 00:04:13;;;;;;;;;;;23.30;82.90;;;;;;5061415;28;19954;-79
2022/08/25 00:06:39;;;;;;;;;;;23.30;82.90;;;;;;5063069;28;19916;-78
2022/08/25 00:09:05;;;;;;;;;;;23.30;82.30;;;;;;5063251;28;20462;-78
2022/08/25 00:11:32;;;;;;;;;;;23.30;82.90;;;;;;5062905;28;20659;-79
2022/08/25 00:13:59;;;;;;;;;;;23.10;83.30;;;;;;5062516;28;19944;-78
2022/08/25 00:16:25;;;;;;;;;;;23.10;83.60;;;;;;5064793;28;20695;-80
2022/08/25 00:18:53;;;;;;;;;;;23.00;84.10;;;;;;5061241;28;19970;-80
2022/08/25 00:21:18;;;;;;;;;;;22.90;85.10;;;;;;5061380;28;19917;-82
2022/08/25 00:23:45;;;;;;;;;;;22.80;86.00;;;;;;5062981;28;19916;-79
2022/08/25 00:26:11;;;;;;;;;;;22.70;86.50;;;;;;5062446;28;19920;-76
2022/08/25 00:28:37;;;;;;;;;;;22.60;87.00;;;;;;5063111;28;19947;-78
2022/08/25 00:31:02;;;;;;;;;;;22.60;87.10;;;;;;5062224;28;19942;-80
2022/08/25 00:33:30;;;;;;;;;;;22.70;87.00;;;;;;5062644;28;19928;-80
2022/08/25 00:35:56;;;;;;;;;;;22.60;87.30;;;;;;5054979;28;19978;-79
2022/08/25 00:38:21;;;;;;;;;;;22.60;87.80;;;;;;5063076;28;19920;-81
2022/08/25 00:41:04;;;;;;;;;;;22.50;88.30;;;;;;5062644;28;19923;-80
2022/08/25 00:44:08;;;;;;;;;;;22.40;88.90;;;;;;5062478;28;19916;-81
2022/08/25 00:46:42;;;;;;;;;;;22.40;89.60;;;;;;5027850;28;20504;-81
2022/08/25 00:49:27;;;;;;;;;;;22.30;90.20;;;;;;5027485;28;19960;-81
2022/08/25 00:51:57;;;;;;;;;;;22.20;90.50;;;;;;5031320;28;19975;-80
2022/08/25 00:54:26;;;;;;;;;;;22.10;91.00;;;;;;5029859;28;20378;-81
2022/08/25 00:56:52;;;;;;;;;;;22.00;91.20;;;;;;5019077;28;21044;-83
2022/08/25 00:59:18;;;;;;;;;;;22.10;91.40;;;;;;5029191;28;19917;-83
2022/08/25 01:01:45;;;;;;;;;;;22.00;91.60;;;;;;5031969;28;19925;-81
2022/08/25 01:04:10;;;;;;;;;;;22.00;91.60;;;;;;5034280;28;19917;-81
2022/08/25 01:06:37;;;;;;;;;;;22.00;91.80;;;;;;5037651;28;19924;-81
2022/08/25 01:09:04;;;;;;;;;;;22.00;91.90;;;;;;5023752;28;19917;-81
2022/08/25 01:11:29;;;;;;;;;;;22.10;92.20;;;;;;5024061;28;20099;-82
2022/08/25 01:13:55;;;;;;;;;;;22.00;92.00;;;;;;5041270;28;19920;-82
2022/08/25 01:16:21;;;;;;;;;;;22.00;91.90;;;;;;5030435;28;19932;-81
2022/08/25 01:18:52;;;;;;;;;;;22.00;91.80;;;;;;5064562;28;20524;-79
2022/08/25 01:21:18;;;;;;;;;;;22.10;91.80;;;;;;5066130;28;19916;-79
2022/08/25 01:23:45;;;;;;;;;;;22.00;92.00;;;;;;5063918;28;19920;-79
2022/08/25 01:26:21;;;;;;;;;;;22.00;91.90;;;;;;5065861;28;20011;-79
2022/08/25 01:31:34;;;;;;;;;;;21.90;92.30;;;;;;5060852;28;19923;-80
2022/08/25 01:33:59;;;;;;;;;;;21.90;92.60;;;;;;5065635;28;20075;-81
2022/08/25 01:36:26;;;;;;;;;;;21.90;92.60;;;;;;5065196;28;19924;-79
2022/08/25 01:38:52;;;;;;;;;;;21.80;93.10;;;;;;5063954;28;19967;-81
2022/08/25 01:41:29;;;;;;;;;;;21.70;93.50;;;;;;5065577;28;19952;-81
2022/08/25 01:43:55;;;;;;;;;;;21.70;93.40;;;;;;5064315;28;20011;-80
2022/08/25 01:46:20;;;;;;;;;;;21.80;93.50;;;;;;5065406;28;20059;-81
2022/08/25 01:48:46;;;;;;;;;;;21.70;93.60;;;;;;5072734;28;20125;-80
2022/08/25 01:51:15;;;;;;;;;;;21.70;93.60;;;;;;5065525;28;20504;-80
2022/08/25 01:53:42;;;;;;;;;;;21.70;93.60;;;;;;5068930;28;19998;-81
2022/08/25 01:56:13;;;;;;;;;;;21.70;93.80;;;;;;5086264;28;19920;-80
2022/08/25 01:58:40;;;;;;;;;;;21.60;93.90;;;;;;5057571;28;19916;-80
2022/08/25 02:01:07;;;;;;;;;;;21.60;94.20;;;;;;5065185;28;19912;-80
2022/08/25 02:03:37;;;;;;;;;;;21.60;94.20;;;;;;5065265;28;19985;-80
2022/08/25 02:06:02;;;;;;;;;;;21.60;94.00;;;;;;5064856;28;19962;-81
2022/08/25 02:08:28;;;;;;;;;;;21.70;93.90;;;;;;5065168;28;19916;-79
2022/08/25 02:10:54;;;;;;;;;;;21.70;93.70;;;;;;5064442;28;19919;-78
2022/08/25 02:13:20;;;;;;;;;;;21.70;93.80;;;;;;5064683;28;19920;-78
2022/08/25 02:15:47;;;;;;;;;;;21.70;93.80;;;;;;5064907;28;19924;-78
2022/08/25 02:18:12;;;;;;;;;;;21.70;93.80;;;;;;5063258;28;19912;-79
2022/08/25 02:20:38;;;;;;;;;;;21.70;93.90;;;;;;5064855;28;19927;-80
2022/08/25 02:23:04;;;;;;;;;;;21.70;93.90;;;;;;5065252;28;19994;-80
2022/08/25 02:25:30;;;;;;;;;;;21.70;93.80;;;;;;5064348;28;20269;-80
2022/08/25 02:27:55;;;;;;;;;;;21.60;93.80;;;;;;5064447;28;19952;-80
2022/08/25 02:30:21;;;;;;;;;;;21.70;93.80;;;;;;5068954;28;19963;-79
2022/08/25 02:32:46;;;;;;;;;;;21.60;93.90;;;;;;5077815;28;19952;-80
2022/08/25 02:35:12;;;;;;;;;;;21.60;94.00;;;;;;5064388;28;19978;-79
2022/08/25 02:37:38;;;;;;;;;;;21.50;94.20;;;;;;5064671;28;19975;-79
2022/08/25 02:40:04;;;;;;;;;;;21.50;94.50;;;;;;5064685;28;19960;-83
2022/08/25 02:42:29;;;;;;;;;;;21.40;94.90;;;;;;5063916;28;19916;-83
2022/08/25 02:44:55;;;;;;;;;;;21.30;95.30;;;;;;5064777;28;19917;-84
2022/08/25 02:47:21;;;;;;;;;;;21.20;95.70;;;;;;5064656;28;20413;-82
2022/08/25 02:49:47;;;;;;;;;;;21.10;96.10;;;;;;5064134;28;19924;-84
2022/08/25 02:52:13;;;;;;;;;;;21.10;96.50;;;;;;5044122;28;20401;-83
2022/08/25 02:54:38;;;;;;;;;;;21.00;96.80;;;;;;5024755;28;19924;-83
2022/08/25 02:57:04;;;;;;;;;;;21.00;97.00;;;;;;5040893;28;19925;-81
2022/08/25 02:59:29;;;;;;;;;;;21.00;97.20;;;;;;5034361;28;19917;-80
2022/08/25 03:01:55;;;;;;;;;;;20.90;97.40;;;;;;5025911;28;19924;-82
2022/08/25 03:04:21;;;;;;;;;;;20.90;97.60;;;;;;5036087;28;19960;-79
2022/08/25 03:06:46;;;;;;;;;;;21.00;97.30;;;;;;5019092;28;20014;-79
2022/08/25 03:09:12;;;;;;;;;;;21.10;97.00;;;;;;5038484;28;19975;-80
2022/08/25 03:11:38;;;;;;;;;;;21.10;96.70;;;;;;5024458;28;20370;-80
2022/08/25 03:14:05;;;;;;;;;;;21.10;96.50;;;;;;5001804;28;19916;-79
2022/08/25 03:16:30;;;;;;;;;;;21.20;96.20;;;;;;5025953;28;19925;-80
2022/08/25 03:18:56;;;;;;;;;;;21.20;95.90;;;;;;5043964;28;20453;-80
2022/08/25 03:21:22;;;;;;;;;;;21.30;95.80;;;;;;5049780;28;19966;-80
2022/08/25 03:23:47;;;;;;;;;;;21.20;95.80;;;;;;5063075;28;19973;-79
2022/08/25 03:28:57;;;;;;;;;;;21.20;95.80;;;;;;5049420;28;20003;-79
2022/08/25 03:31:24;;;;;;;;;;;21.10;95.90;;;;;;5064563;28;20015;-79
2022/08/25 03:33:50;;;;;;;;;;;21.10;96.10;;;;;;5055956;28;19939;-79
2022/08/25 03:36:16;;;;;;;;;;;21.10;96.20;;;;;;5043549;28;19925;-79
2022/08/25 03:38:42;;;;;;;;;;;21.10;96.40;;;;;;5043538;28;19944;-78
2022/08/25 03:41:13;;;;;;;;;;;20.90;97.10;;;;;;5044333;28;19912;-79
2022/08/25 03:43:39;;;;;;;;;;;20.90;97.50;;;;;;5015612;28;20039;-79
2022/08/25 03:46:04;;;;;;;;;;;20.80;97.90;;;;;;5024028;28;20027;-77
2022/08/25 03:48:30;;;;;;;;;;;20.70;98.20;;;;;;5037466;28;19917;-78
2022/08/25 03:50:56;;;;;;;;;;;20.70;98.30;;;;;;5042597;28;19925;-78
2022/08/25 03:53:21;;;;;;;;;;;20.70;98.50;;;;;;5061096;28;20825;-79
2022/08/25 03:55:47;;;;;;;;;;;20.50;98.80;;;;;;5074789;28;20446;-79
2022/08/25 03:58:13;;;;;;;;;;;20.50;99.00;;;;;;5083827;28;19919;-78
2022/08/25 04:00:38;;;;;;;;;;;20.50;99.30;;;;;;5065848;28;20004;-79
2022/08/25 04:03:04;;;;;;;;;;;20.60;99.10;;;;;;5062892;28;19916;-79
2022/08/25 04:05:30;;;;;;;;;;;20.70;98.80;;;;;;5062880;28;20581;-79
2022/08/25 04:07:55;;;;;;;;;;;20.70;98.60;;;;;;5062936;28;20378;-79
2022/08/25 04:10:21;;;;;;;;;;;20.70;98.50;;;;;;5062659;28;19934;-78
2022/08/25 04:12:48;;;;;;;;;;;20.70;98.40;;;;;;5072570;28;19916;-78
2022/08/25 04:15:14;;;;;;;;;;;20.70;98.30;;;;;;5083235;28;19912;-78
2022/08/25 04:17:39;;;;;;;;;;;20.80;98.00;;;;;;5064586;28;19912;-78
2022/08/25 04:20:09;;;;;;;;;;;20.70;97.90;;;;;;5063554;28;20404;-80
2022/08/25 04:22:35;;;;;;;;;;;20.70;98.00;;;;;;5062726;28;19912;-79
2022/08/25 04:25:01;;;;;;;;;;;20.70;97.90;;;;;;5062858;28;19963;-80
2022/08/25 04:27:27;;;;;;;;;;;20.70;98.30;;;;;;5063382;28;19967;-80
2022/08/25 04:29:53;;;;;;;;;;;20.70;98.20;;;;;;5080189;28;20379;-81
2022/08/25 04:32:19;;;;;;;;;;;20.60;98.40;;;;;;5083017;28;19919;-81
2022/08/25 04:34:44;;;;;;;;;;;20.60;98.60;;;;;;5073767;28;19912;-82
2022/08/25 04:37:10;;;;;;;;;;;20.50;99.10;;;;;;5067643;28;19924;-82
2022/08/25 04:39:36;;;;;;;;;;;20.40;99.60;;;;;;5079222;28;19920;-80
2022/08/25 04:42:02;;;;;;;;;;;20.40;99.70;;;;;;5087234;28;20370;-80
2022/08/25 04:44:28;;;;;;;;;;;20.40;99.90;;;;;;5069326;28;19994;-81
2022/08/25 04:46:54;;;;;;;;;;;20.40;99.90;;;;;;5083927;28;19919;-80
2022/08/25 04:49:20;;;;;;;;;;;20.30;99.90;;;;;;5081877;28;19920;-80
2022/08/25 04:51:45;;;;;;;;;;;20.30;99.90;;;;;;5075655;28;19931;-79
2022/08/25 04:54:12;;;;;;;;;;;20.40;99.90;;;;;;5085233;28;19931;-82
2022/08/25 04:56:40;;;;;;;;;;;20.40;99.90;;;;;;5087241;28;19920;-81
2022/08/25 04:59:08;;;;;;;;;;;20.30;99.90;;;;;;5087167;28;20074;-80
2022/08/25 05:01:34;;;;;;;;;;;20.30;99.90;;;;;;5072872;28;19931;-83
2022/08/25 05:04:01;;;;;;;;;;;20.30;99.90;;;;;;5066621;28;19912;-83
2022/08/25 05:06:27;;;;;;;;;;;20.40;99.90;;;;;;5070487;28;19912;-85
2022/08/25 05:08:54;;;;;;;;;;;20.30;99.90;;;;;;5069474;28;20400;-92
2022/08/25 05:11:21;;;;;;;;;;;20.60;99.90;;;;;;5069173;28;19923;-89
2022/08/25 05:13:47;;;;;;;;;;;20.60;99.90;;;;;;5066199;28;19956;-88
2022/08/25 05:16:13;;;;;;;;;;;20.60;99.90;;;;;;5065569;28;19928;-86
2022/08/25 05:18:39;;;;;;;;;;;20.60;99.90;;;;;;5065073;28;20346;-87
2022/08/25 05:21:07;;;;;;;;;;;20.60;99.90;;;;;;5070177;28;20391;-88
2022/08/25 05:23:32;;;;;;;;;;;21.20;99.90;;;;;;5066361;28;20418;-88
2022/08/25 05:26:03;;;;;;;;;;;21.70;98.40;;;;;;5066733;28;19916;-87
2022/08/25 05:28:28;;;;;;;;;;;21.90;97.90;;;;;;5065835;28;19960;-90
2022/08/25 05:30:57;;;;;;;;;;;21.90;98.20;;;;;;5067255;28;19990;-90
2022/08/25 05:33:22;;;;;;;;;;;22.20;97.60;;;;;;5066204;28;19925;-82
2022/08/25 05:35:48;;;;;;;;;;;22.80;95.90;;;;;;5075525;28;20496;-82
2022/08/25 05:38:13;;;;;;;;;;;23.20;94.30;;;;;;5071800;28;19923;-83
2022/08/25 05:40:39;;;;;;;;;;;23.10;94.30;;;;;;5077319;28;19916;-82
2022/08/25 05:43:04;;;;;;;;;;;21.90;96.40;;;;;;5072956;28;20039;-82
2022/08/25 05:45:30;;;;;;;;;;;21.20;99.40;;;;;;5069941;28;20358;-83
2022/08/25 05:47:57;;;;;;;;;;;21.30;99.80;;;;;;5065062;28;19923;-82
2022/08/25 05:50:22;;;;;;;;;;;22.50;97.00;;;;;;5088050;28;20502;-83
2022/08/25 05:52:48;;;;;;;;;;;23.40;95.30;;;;;;5065374;28;20015;-83
2022/08/25 05:55:14;;;;;;;;;;;24.40;93.30;;;;;;5063166;28;19920;-83
2022/08/25 05:57:39;;;;;;;;;;;24.90;92.00;;;;;;5084398;28;19970;-85
2022/08/25 06:00:06;;;;;;;;;;;25.40;89.80;;;;;;5067457;28;20010;-80
2022/08/25 06:02:42;;;;;;;;;;;26.30;86.80;;;;;;5065853;28;20590;-79
2022/08/25 06:05:16;;;;;;;;;;;27.00;83.40;;;;;;5064673;28;19939;-79
2022/08/25 06:07:42;;;;;;;;;;;27.20;82.50;;;;;;5062426;28;20008;-79
2022/08/25 06:10:12;;;;;;;;;;;27.40;79.20;;;;;;5064297;28;19939;-79
2022/08/25 06:12:38;;;;;;;;;;;27.40;82.70;;;;;;5065334;28;19912;-80
2022/08/25 06:15:04;;;;;;;;;;;28.50;78.70;;;;;;5065280;28;19912;-79
2022/08/25 06:17:30;;;;;;;;;;;29.30;76.10;;;;;;5085529;28;19916;-80
2022/08/25 06:19:56;;;;;;;;;;;29.70;77.20;;;;;;5083594;28;19963;-78
2022/08/25 06:22:24;;;;;;;;;;;30.00;73.20;;;;;;5085471;28;19962;-81
2022/08/25 06:24:49;;;;;;;;;;;30.70;71.20;;;;;;5084977;28;20556;-79
2022/08/25 06:27:15;;;;;;;;;;;31.10;73.00;;;;;;5050798;28;19916;-79
2022/08/25 06:29:40;;;;;;;;;;;31.20;69.30;;;;;;5044850;28;19924;-78
2022/08/25 06:32:06;;;;;;;;;;;31.00;70.20;;;;;;5044937;28;19913;-77
2022/08/25 06:34:32;;;;;;;;;;;31.30;70.10;;;;;;5044285;28;19912;-82
2022/08/25 06:36:58;;;;;;;;;;;31.00;69.90;;;;;;5050428;28;19921;-79
2022/08/25 06:39:23;;;;;;;;;;;31.30;69.30;;;;;;5047104;28;19928;-80
2022/08/25 06:41:52;;;;;;;;;;;27.90;75.00;;;;;;5062338;28;19920;-80
2022/08/25 06:44:18;;;;;;;;;;;27.30;78.10;;;;;;5063844;28;19916;-79
2022/08/25 06:46:44;;;;;;;;;;;27.80;77.90;;;;;;5061839;28;19924;-80
2022/08/25 06:49:10;;;;;;;;;;;28.10;76.00;;;;;;5062443;28;20289;-80
2022/08/25 06:51:35;;;;;;;;;;;28.50;75.10;;;;;;5093516;28;20375;-80
2022/08/25 06:54:01;;;;;;;;;;;27.10;76.80;;;;;;5062220;28;20011;-80
2022/08/25 06:56:27;;;;;;;;;;;26.20;80.00;;;;;;5061936;28;20015;-79
2022/08/25 06:58:53;;;;;;;;;;;25.70;80.70;;;;;;5060636;28;19931;-78
2022/08/25 07:01:22;;;;;;;;;;;25.30;83.10;;;;;;5092030;28;20330;-78
2022/08/25 07:03:48;;;;;;;;;;;25.70;83.60;;;;;;5060782;28;20016;-77
2022/08/25 07:06:14;;;;;;;;;;;26.20;81.40;;;;;;5060943;28;20004;-78
2022/08/25 07:08:39;;;;;;;;;;;26.80;81.80;;;;;;5061040;28;19913;-78
2022/08/25 07:11:06;;;;;;;;;;;27.80;79.50;;;;;;5061510;28;19969;-78
2022/08/25 07:13:31;;;;;;;;;;;30.00;76.60;;;;;;5059868;28;19917;-79
2022/08/25 07:15:57;;;;;;;;;;;31.90;70.30;;;;;;5061540;28;19924;-77
2022/08/25 07:18:23;;;;;;;;;;;32.60;68.30;;;;;;5061849;28;19912;-78
2022/08/25 07:20:50;;;;;;;;;;;30.60;68.80;;;;;;5060477;28;19921;-78
2022/08/25 07:23:17;;;;;;;;;;;31.40;69.00;;;;;;5061377;28;19912;-79
2022/08/25 07:25:42;;;;;;;;;;;30.70;68.10;;;;;;5060305;28;19916;-78
2022/08/25 07:28:08;;;;;;;;;;;30.60;68.60;;;;;;5060459;28;20437;-78
2022/08/25 07:30:33;;;;;;;;;;;29.50;70.20;;;;;;5061364;28;20006;-79
2022/08/25 07:32:59;;;;;;;;;;;27.60;75.10;;;;;;5060957;28;19916;-79
2022/08/25 07:35:26;;;;;;;;;;;26.30;78.80;;;;;;5061682;28;19913;-79
2022/08/25 07:37:56;;;;;;;;;;;26.80;78.90;;;;;;5059669;28;20718;-80
2022/08/25 07:40:31;;;;;;;;;;;26.40;79.90;;;;;;5061667;28;19954;-78
2022/08/25 07:42:57;;;;;;;;;;;27.20;78.00;;;;;;5062526;28;19917;-79
2022/08/25 07:45:29;;;;;;;;;;;29.00;73.50;;;;;;5063432;28;19916;-77
2022/08/25 07:48:02;;;;;;;;;;;31.50;68.80;;;;;;5074611;28;19916;-76
2022/08/25 07:50:28;;;;;;;;;;;30.00;67.60;;;;;;5059396;28;19935;-76
2022/08/25 07:52:54;;;;;;;;;;;31.20;66.50;;;;;;5060584;28;20336;-77
2022/08/25 07:55:20;;;;;;;;;;;31.90;64.60;;;;;;5057989;28;20002;-78
2022/08/25 07:57:46;;;;;;;;;;;33.00;61.80;;;;;;5061207;28;20303;-79
2022/08/25 08:00:14;;;;;;;;;;;33.00;61.40;;;;;;5059138;28;20367;-78
2022/08/25 08:02:40;;;;;;;;;;;31.70;62.10;;;;;;5059973;28;20579;-78
2022/08/25 08:05:06;;;;;;;;;;;30.10;65.40;;;;;;5061170;28;19912;-79
2022/08/25 08:07:32;;;;;;;;;;;32.70;63.10;;;;;;5060543;28;20076;-78
2022/08/25 08:09:57;;;;;;;;;;;34.00;59.80;;;;;;5058836;28;19927;-78
2022/08/25 08:12:24;;;;;;;;;;;34.40;58.70;;;;;;5059249;28;19916;-82
2022/08/25 08:14:50;;;;;;;;;;;34.00;58.40;;;;;;5060787;28;20039;-82
2022/08/25 08:17:16;;;;;;;;;;;33.80;57.60;;;;;;5057464;28;19931;-82
2022/08/25 08:19:42;;;;;;;;;;;34.50;58.20;;;;;;5062371;28;19969;-82
2022/08/25 08:22:10;;;;;;;;;;;31.10;62.90;;;;;;5061696;28;20335;-82
2022/08/25 08:24:38;;;;;;;;;;;33.60;58.60;;;;;;5061133;28;19917;-82
2022/08/25 08:27:04;;;;;;;;;;;35.00;56.90;;;;;;5061804;28;20450;-82
2022/08/25 08:29:30;;;;;;;;;;;36.50;54.60;;;;;;5062033;28;20490;-81
2022/08/25 08:31:55;;;;;;;;;;;36.40;54.50;;;;;;5061469;28;19924;-82
2022/08/25 08:34:22;;;;;;;;;;;36.40;53.30;;;;;;5061481;28;19916;-82
2022/08/25 08:36:48;;;;;;;;;;;35.80;54.70;;;;;;5061918;28;19924;-82
2022/08/25 08:39:14;;;;;;;;;;;36.50;54.90;;;;;;5062484;28;20383;-81
2022/08/25 08:44:44;;;;;;;;;;;38.30;51.60;;;;;;5059706;28;19927;-80
2022/08/25 08:47:28;;;;;;;;;;;38.80;51.00;;;;;;5060560;28;19912;-81
2022/08/25 08:50:12;;;;;;;;;;;39.60;50.70;;;;;;5059311;28;19979;-83
2022/08/25 08:52:51;;;;;;;;;;;37.80;50.40;;;;;;5060846;28;19924;-83
2022/08/25 08:55:29;;;;;;;;;;;39.10;50.30;;;;;;5062267;28;20761;-85
2022/08/25 08:57:56;;;;;;;;;;;38.50;50.50;;;;;;5062683;28;19919;-79
2022/08/25 09:00:22;;;;;;;;;;;39.80;49.90;;;;;;5061347;28;19917;-79
2022/08/25 09:03:01;;;;;;;;;;;38.50;48.70;;;;;;5057626;28;20495;-79
2022/08/25 09:05:57;;;;;;;;;;;36.20;51.20;;;;;;5048899;28;19920;-80
2022/08/25 09:08:23;;;;;;;;;;;33.80;56.00;;;;;;5061313;28;19916;-79
2022/08/25 09:10:56;;;;;;;;;;;33.40;57.60;;;;;;5063175;28;19913;-79
2022/08/25 09:13:40;;;;;;;;;;;34.20;56.50;;;;;;5061533;28;20331;-79
2022/08/25 09:19:08;;;;;;;;;;;36.00;54.80;;;;;;5064786;28;19932;-83
2022/08/25 09:21:39;;;;;;;;;;;37.10;53.10;;;;;;5070727;28;19920;-83
2022/08/25 09:24:19;;;;;;;;;;;37.70;52.50;;;;;;5065120;28;20014;-82
2022/08/25 09:26:57;;;;;;;;;;;37.60;51.70;;;;;;5069029;28;19912;-83
2022/08/25 09:29:26;;;;;;;;;;;38.30;51.10;;;;;;5070585;28;20505;-83
2022/08/25 09:31:55;;;;;;;;;;;36.20;52.60;;;;;;5064113;28;19913;-83
2022/08/25 09:34:22;;;;;;;;;;;36.60;53.10;;;;;;5066508;28;20288;-83
2022/08/25 09:36:51;;;;;;;;;;;34.50;53.70;;;;;;5073129;28;19924;-83
2022/08/25 09:39:18;;;;;;;;;;;33.60;56.00;;;;;;5060908;28;19923;-85
2022/08/25 09:41:43;;;;;;;;;;;33.70;57.20;;;;;;5060148;28;19959;-86
2022/08/25 09:44:20;;;;;;;;;;;35.60;55.80;;;;;;5064522;28;19951;-82
2022/08/25 09:47:03;;;;;;;;;;;34.00;55.80;;;;;;5054012;28;19966;-80
2022/08/25 09:49:35;;;;;;;;;;;34.30;56.00;;;;;;5062442;28;19916;-81
2022/08/25 09:52:19;;;;;;;;;;;36.80;53.60;;;;;;5061543;28;20003;-80
2022/08/25 09:54:45;;;;;;;;;;;38.10;51.10;;;;;;5062989;28;20453;-81
2022/08/25 09:57:27;;;;;;;;;;;38.10;51.40;;;;;;5063503;28;19924;-81
2022/08/25 09:59:52;;;;;;;;;;;37.20;51.80;;;;;;5062703;28;19947;-81
2022/08/25 10:02:20;;;;;;;;;;;36.80;52.20;;;;;;5063125;28;19960;-81
2022/08/25 10:04:46;;;;;;;;;;;37.90;51.10;;;;;;5062045;28;19912;-82
2022/08/25 10:07:42;;;;;;;;;;;37.60;52.10;;;;;;5060966;28;19923;-80
2022/08/25 10:10:20;;;;;;;;;;;36.40;53.30;;;;;;5054300;28;19908;-81
2022/08/25 10:12:46;;;;;;;;;;;35.90;54.00;;;;;;5062638;28;19917;-81
2022/08/25 10:15:19;;;;;;;;;;;35.00;54.20;;;;;;5061235;28;19961;-81
2022/08/25 10:17:45;;;;;;;;;;;34.30;56.00;;;;;;5062526;28;19922;-82
2022/08/25 10:20:15;;;;;;;;;;;32.20;58.80;;;;;;5060203;28;20494;-82
2022/08/25 10:22:42;;;;;;;;;;;32.30;59.60;;;;;;5062712;28;19916;-82
2022/08/25 10:25:08;;;;;;;;;;;32.30;59.90;;;;;;5060743;28;19944;-82
2022/08/25 10:27:38;;;;;;;;;;;31.90;60.70;;;;;;5059943;28;19927;-82
2022/08/25 10:30:22;;;;;;;;;;;32.40;60.60;;;;;;5075808;28;19921;-81
2022/08/25 10:32:47;;;;;;;;;;;32.30;60.40;;;;;;5064805;28;19920;-82
2022/08/25 10:35:16;;;;;;;;;;;31.60;61.70;;;;;;5055779;28;20018;-82
2022/08/25 10:38:02;;;;;;;;;;;31.90;60.60;;;;;;5063716;28;19920;-82
2022/08/25 10:40:36;;;;;;;;;;;31.30;61.40;;;;;;5064353;28;19959;-82
2022/08/25 10:43:05;;;;;;;;;;;32.30;61.10;;;;;;5063417;28;19916;-82
2022/08/25 10:45:42;;;;;;;;;;;31.90;61.90;;;;;;5064275;28;19920;-82
2022/08/25 10:48:08;;;;;;;;;;;32.30;61.10;;;;;;5080326;28;20006;-80
2022/08/25 10:50:33;;;;;;;;;;;32.00;59.80;;;;;;5064885;28;20010;-80
2022/08/25 10:52:59;;;;;;;;;;;32.50;61.10;;;;;;5069280;28;19916;-79
2022/08/25 10:55:29;;;;;;;;;;;31.40;62.20;;;;;;5076177;28;19961;-79
2022/08/25 10:57:58;;;;;;;;;;;31.50;62.30;;;;;;5064234;28;19923;-79
2022/08/25 11:00:31;;;;;;;;;;;31.40;62.30;;;;;;5064281;28;19965;-79
2022/08/25 11:03:00;;;;;;;;;;;31.70;63.00;;;;;;5064343;28;19935;-79
2022/08/25 11:05:35;;;;;;;;;;;32.30;62.80;;;;;;5064572;28;19917;-80
2022/08/25 11:08:20;;;;;;;;;;;32.00;63.00;;;;;;5064527;28;19942;-79
2022/08/25 11:10:48;;;;;;;;;;;31.80;63.20;;;;;;5067754;28;20473;-80
2022/08/25 11:13:16;;;;;;;;;;;31.40;63.00;;;;;;5075932;28;19924;-78
2022/08/25 11:15:53;;;;;;;;;;;31.70;63.30;;;;;;5067824;28;19973;-79
2022/08/25 11:18:20;;;;;;;;;;;32.10;62.30;;;;;;5057709;28;19917;-81
2022/08/25 11:20:59;;;;;;;;;;;31.50;62.80;;;;;;5060352;28;20346;-81
2022/08/25 11:23:40;;;;;;;;;;;31.60;63.80;;;;;;5061264;28;19927;-81
2022/08/25 11:26:18;;;;;;;;;;;31.50;64.00;;;;;;5060046;28;19951;-81
2022/08/25 11:29:03;;;;;;;;;;;31.70;62.60;;;;;;5075236;28;20388;-81
2022/08/25 11:31:29;;;;;;;;;;;31.10;63.80;;;;;;5075795;28;19913;-82
2022/08/25 11:33:56;;;;;;;;;;;30.80;63.00;;;;;;5060451;28;20651;-82
2022/08/25 11:36:31;;;;;;;;;;;30.70;64.20;;;;;;5045137;28;19929;-81
2022/08/25 11:38:59;;;;;;;;;;;30.70;64.20;;;;;;5061153;28;20053;-79
2022/08/25 11:41:37;;;;;;;;;;;31.00;63.80;;;;;;5062829;28;19963;-80
2022/08/25 11:44:21;;;;;;;;;;;31.00;63.80;;;;;;5061306;28;19923;-80
2022/08/25 11:46:50;;;;;;;;;;;31.30;63.20;;;;;;5062007;28;20004;-81
2022/08/25 11:49:33;;;;;;;;;;;31.00;64.40;;;;;;5062500;28;20413;-80
2022/08/25 11:51:59;;;;;;;;;;;30.60;64.90;;;;;;5076667;28;19932;-80
2022/08/25 11:54:28;;;;;;;;;;;30.60;65.20;;;;;;5062244;28;19916;-81
2022/08/25 11:57:25;;;;;;;;;;;31.00;64.60;;;;;;5061492;28;19924;-81
2022/08/25 11:59:56;;;;;;;;;;;31.10;63.00;;;;;;5057318;28;20241;-82
2022/08/25 12:02:37;;;;;;;;;;;30.70;63.70;;;;;;5061799;28;19967;-80
2022/08/25 12:05:26;;;;;;;;;;;30.90;64.10;;;;;;5075804;28;19959;-80
2022/08/25 12:10:55;;;;;;;;;;;31.30;64.80;;;;;;5037458;28;20072;-81
2022/08/25 12:13:41;;;;;;;;;;;30.90;63.00;;;;;;5036498;28;20630;-81
2022/08/25 12:16:28;;;;;;;;;;;31.10;63.70;;;;;;5037102;28;20380;-81
2022/08/25 12:19:13;;;;;;;;;;;31.30;64.40;;;;;;4998425;28;19917;-81
2022/08/25 12:21:39;;;;;;;;;;;31.00;64.00;;;;;;4999112;28;20012;-82
2022/08/25 12:24:08;;;;;;;;;;;31.10;65.20;;;;;;4999688;28;19924;-81
2022/08/25 12:26:34;;;;;;;;;;;30.70;63.00;;;;;;4998864;28;20007;-82
2022/08/25 12:29:00;;;;;;;;;;;30.60;65.20;;;;;;4998853;28;20008;-81
2022/08/25 12:31:35;;;;;;;;;;;30.60;65.10;;;;;;4997771;28;19953;-82
2022/08/25 12:34:20;;;;;;;;;;;30.50;63.20;;;;;;4998541;28;19957;-83
2022/08/25 12:36:56;;;;;;;;;;;30.40;62.90;;;;;;4996149;28;19925;-83
2022/08/25 12:39:28;;;;;;;;;;;30.50;63.30;;;;;;5013510;28;19913;-83
2022/08/25 12:42:01;;;;;;;;;;;30.40;63.10;;;;;;4999010;28;20019;-83
2022/08/25 12:44:35;;;;;;;;;;;30.50;64.30;;;;;;5004291;28;19923;-83
2022/08/25 12:47:06;;;;;;;;;;;30.30;63.80;;;;;;5020348;28;19917;-82
2022/08/25 12:49:33;;;;;;;;;;;30.70;64.30;;;;;;5020215;28;19913;-83
2022/08/25 12:52:15;;;;;;;;;;;30.70;63.90;;;;;;5019730;28;19925;-83
2022/08/25 12:54:44;;;;;;;;;;;30.80;65.20;;;;;;5021347;28;19925;-81
2022/08/25 12:57:28;;;;;;;;;;;30.70;64.20;;;;;;5064799;28;19935;-79
2022/08/25 12:59:55;;;;;;;;;;;30.70;64.40;;;;;;5064644;28;19921;-78
2022/08/25 13:02:21;;;;;;;;;;;30.70;65.10;;;;;;5066500;28;19919;-78
2022/08/25 13:04:52;;;;;;;;;;;31.00;65.20;;;;;;5066938;28;19912;-79
2022/08/25 13:07:57;;;;;;;;;;;30.90;64.70;;;;;;5067387;28;19913;-78
2022/08/25 13:10:41;;;;;;;;;;;31.30;66.40;;;;;;5060383;28;20325;-78
2022/08/25 13:13:18;;;;;;;;;;;31.40;65.30;;;;;;5043688;28;20332;-78
2022/08/25 13:15:56;;;;;;;;;;;31.10;64.40;;;;;;5043730;28;19925;-78
2022/08/25 13:18:25;;;;;;;;;;;31.00;64.60;;;;;;5043635;28;20004;-78
2022/08/25 13:21:03;;;;;;;;;;;31.20;65.60;;;;;;5026578;28;19924;-78
2022/08/25 13:23:29;;;;;;;;;;;31.20;64.80;;;;;;5043563;28;19912;-78
2022/08/25 13:25:56;;;;;;;;;;;31.00;64.40;;;;;;5043552;28;20011;-78
2022/08/25 13:28:24;;;;;;;;;;;31.00;65.00;;;;;;5043690;28;19913;-78
2022/08/25 13:31:01;;;;;;;;;;;31.10;65.50;;;;;;5043503;28;20419;-78
2022/08/25 13:33:26;;;;;;;;;;;31.20;65.10;;;;;;5043211;28;19944;-79
2022/08/25 13:38:37;;;;;;;;;;;31.20;65.10;;;;;;5043647;28;19920;-78
2022/08/25 13:41:03;;;;;;;;;;;31.30;65.40;;;;;;5053925;28;19916;-78
2022/08/25 13:43:29;;;;;;;;;;;31.00;63.80;;;;;;5066230;28;19934;-78
2022/08/25 13:45:55;;;;;;;;;;;30.80;64.00;;;;;;5066601;28;19936;-78
2022/08/25 13:48:37;;;;;;;;;;;30.80;64.30;;;;;;5065872;28;19920;-78
2022/08/25 13:51:06;;;;;;;;;;;30.90;62.20;;;;;;5066250;28;19932;-79
2022/08/25 13:53:32;;;;;;;;;;;30.80;63.20;;;;;;5065845;28;19912;-78
2022/08/25 13:55:58;;;;;;;;;;;31.00;61.50;;;;;;5066073;28;20410;-78
2022/08/25 13:58:31;;;;;;;;;;;31.30;62.50;;;;;;5065836;28;19956;-78
2022/08/25 14:01:02;;;;;;;;;;;31.40;61.80;;;;;;5065874;28;19919;-78
2022/08/25 14:03:33;;;;;;;;;;;31.40;62.30;;;;;;5065458;28;19912;-79
2022/08/25 14:06:04;;;;;;;;;;;31.40;62.10;;;;;;5065826;28;19919;-79
2022/08/25 14:08:32;;;;;;;;;;;31.40;61.60;;;;;;5065323;28;19923;-78
2022/08/25 14:11:04;;;;;;;;;;;31.50;61.40;;;;;;5064910;28;19912;-78
2022/08/25 14:13:33;;;;;;;;;;;31.30;61.70;;;;;;5065196;28;19912;-78
2022/08/25 14:16:06;;;;;;;;;;;31.60;61.60;;;;;;5065576;28;19921;-78
2022/08/25 14:18:32;;;;;;;;;;;31.30;62.40;;;;;;5065060;28;20372;-78
2022/08/25 14:20:58;;;;;;;;;;;31.30;62.50;;;;;;5065214;28;19923;-78
2022/08/25 14:23:26;;;;;;;;;;;31.30;62.70;;;;;;5065212;28;20448;-78
2022/08/25 14:25:52;;;;;;;;;;;31.20;62.40;;;;;;5065403;28;20391;-78
2022/08/25 14:28:20;;;;;;;;;;;31.40;62.80;;;;;;5065439;28;19913;-78
2022/08/25 14:30:48;;;;;;;;;;;31.60;62.90;;;;;;5064936;28;19993;-78
2022/08/25 14:33:14;;;;;;;;;;;31.30;62.30;;;;;;5065057;28;20343;-78
2022/08/25 14:35:42;;;;;;;;;;;31.10;62.80;;;;;;5064875;28;20166;-78
2022/08/25 14:38:09;;;;;;;;;;;31.40;63.30;;;;;;5065005;28;19916;-78
2022/08/25 14:40:35;;;;;;;;;;;31.60;62.30;;;;;;5064951;28;19966;-78
2022/08/25 14:43:00;;;;;;;;;;;31.50;62.10;;;;;;5065141;28;19912;-78
2022/08/25 14:45:26;;;;;;;;;;;31.70;61.80;;;;;;5064832;28;19956;-78